ADDS METAR Data INFO
IDs: Format: Raw Decoded Include TAF

Data at: 0153 UTC 17 Oct 2017

KMTJ 170053Z AUTO 05005KT 10SM CLR 13/M11 A3038 RMK AO2 SLP269 T01281106
KMTJ 162353Z AUTO 33005KT 10SM CLR 17/M13 A3037 RMK AO2 SLP259 T01671133 10194 20128 53001
KMTJ 162253Z AUTO 32007KT 10SM CLR 18/M12 A3036 RMK AO2 SLP250 T01831122
KMTJ 162153Z AUTO 33010KT 10SM CLR 19/M12 A3036 RMK AO2 SLP247 T01941117
KMTJ 162053Z AUTO 33005KT 10SM CLR 19/M12 A3037 RMK AO2 SLP248 T01891117 58034
KMTJ 161953Z AUTO VRB03KT 10SM CLR 17/M12 A3041 RMK AO2 SLP267 T01721122
KMTJ 161853Z AUTO 29004KT 10SM CLR 15/M10 A3045 RMK AO2 SLP285 T01501100
KMTJ 161753Z AUTO 35004KT 10SM CLR 13/M11 A3049 RMK AO2 SLP297 T01281106 10128 21039 58016
KMTJ 161653Z AUTO 30004KT 10SM CLR 10/M12 A3052 RMK AO2 SLP312 T01001117
KMTJ 161553Z AUTO 00000KT 10SM CLR 07/M12 A3053 RMK AO2 SLP322 T00721117
KMTJ 161453Z AUTO 16004KT 10SM CLR 02/M09 A3054 RMK AO2 SLP334 T00171094 53009
KMTJ 161353Z AUTO 17007KT 10SM CLR M02/M11 A3053 RMK AO2 SLP334 T10221106
KMTJ 161253Z AUTO 16006KT 10SM CLR M03/M11 A3052 RMK AO2 SLP321 T10331106
KMTJ 161153Z AUTO 13005KT 10SM CLR M02/M10 A3051 RMK AO2 SLP309 T10221100 10028 21028 53001
KMTJ 161053Z AUTO 16007KT 10SM CLR M02/M10 A3050 RMK AO2 SLP303 T10221100
KMTJ 160953Z AUTO 16008KT 10SM CLR M01/M10 A3050 RMK AO2 SLP300 T10111100
KMTJ 160853Z AUTO 16007KT 10SM CLR M01/M10 A3051 RMK AO2 SLP306 T10061100 56003
KMTJ 160753Z AUTO 14007KT 10SM CLR M01/M09 A3051 RMK AO2 SLP311 T10061089
KMTJ 160653Z AUTO 16009KT 10SM CLR 01/M09 A3051 RMK AO2 SLP313 T00061089 401611050
KMTJ 160553Z AUTO 16009KT 10SM CLR 02/M09 A3052 RMK AO2 SLP315 T00221089 10150 20017 50004
KMTJ 160453Z AUTO 14010KT 10SM CLR 03/M09 A3052 RMK AO2 SLP320 T00281089
KMTJ 160353Z AUTO 14007KT 10SM CLR 03/M08 A3052 RMK AO2 SLP322 T00331083
KMTJ 160253Z AUTO 15006KT 10SM CLR 05/M07 A3050 RMK AO2 SLP323 T00501072 52015
KMTJ 160153Z AUTO 14006KT 10SM CLR 06/M07 A3049 RMK AO2 SLP323 T00611072
KMTJ 160053Z AUTO 00000KT 10SM CLR 12/M10 A3047 RMK AO2 SLP307 T01171100
KMTJ 152353Z AUTO 32005KT 10SM CLR 15/M13 A3045 RMK AO2 SLP293 T01501133 10161 20094 55009
KMTJ 152253Z AUTO 34005KT 10SM CLR 16/M13 A3045 RMK AO2 SLP289 T01611128
KMTJ 152153Z AUTO VRB04KT 10SM CLR 16/M12 A3045 RMK AO2 SLP289 T01611117
KMTJ 152053Z AUTO VRB03KT 10SM CLR 14/M12 A3048 RMK AO2 SLP302 T01441117 56031
KMTJ 151953Z AUTO 30003KT 10SM CLR 13/M12 A3051 RMK AO2 SLP313 T01281122
KMTJ 151853Z AUTO 05004KT 10SM CLR 11/M12 A3056 RMK AO2 SLP332 T01111117
KMTJ 151753Z AUTO 35003KT 10SM CLR 09/M13 A3059 RMK AO2 SLP348 T00941128 10094 21050 58012
KMTJ 151653Z AUTO VRB03KT 10SM CLR 07/M12 A3062 RMK AO2 SLP362 T00671122
KMTJ 151553Z AUTO 00000KT 10SM CLR 04/M13 A3063 RMK AO2 SLP371 T00391128
KMTJ 151453Z AUTO 14005KT 10SM CLR 01/M11 A3063 RMK AO2 SLP373 T00061111 53010